Time;durP1;ratioP1;P1;durP2;ratioP2;P2;SDS_P1;SDS_P2;PMS_P1;PMS_P2;Temp;Humidity;BMP_temperature;BMP_pressure;BME280_temperature;BME280_humidity;BME280_pressure;Samples;Min_cycle;Max_cycle;Signal;HPM_P1;HPM_P2
2022/06/15 00:01:30;;;;;;;15.57;5.15;;;;;;;14.40;79.18;101962.81;5033789;28;20037;-71
2022/06/15 00:03:56;;;;;;;9.35;5.13;;;;;;;14.25;79.62;101966.47;5033575;28;20029;-72
2022/06/15 00:06:28;;;;;;;12.18;5.28;;;;;;;14.25;80.08;101962.06;5015193;28;20029;-71
2022/06/15 00:08:55;;;;;;;11.88;5.30;;;;;;;14.13;80.27;101963.53;5015608;28;20075;-71
2022/06/15 00:11:24;;;;;;;13.88;5.10;;;;;;;14.09;81.52;101959.66;5033368;28;20025;-72
2022/06/15 00:13:50;;;;;;;9.60;5.03;;;;;;;14.03;81.52;101963.78;5015771;28;20473;-71
2022/06/15 00:16:17;;;;;;;10.40;5.10;;;;;;;13.87;82.36;101961.38;5015780;28;20095;-70
2022/06/15 00:18:44;;;;;;;10.98;5.28;;;;;;;13.81;82.97;101960.31;5015615;28;20117;-72
2022/06/15 00:21:10;;;;;;;10.82;5.35;;;;;;;13.76;82.42;101954.84;5033264;28;20025;-70
2022/06/15 00:23:36;;;;;;;12.20;5.15;;;;;;;13.76;82.86;101967.84;5033231;28;20029;-70
2022/06/15 00:26:01;;;;;;;12.68;5.15;;;;;;;13.87;83.55;101970.00;5033150;28;20021;-71
2022/06/15 00:28:27;;;;;;;14.27;5.10;;;;;;;13.78;83.66;101971.03;5033200;28;20032;-70
2022/06/15 00:30:53;;;;;;;14.50;4.97;;;;;;;13.79;83.43;101970.06;5033052;28;20076;-70
2022/06/15 00:33:21;;;;;;;9.18;4.88;;;;;;;13.83;83.59;101966.13;5033178;28;20033;-70
2022/06/15 00:35:57;;;;;;;10.40;4.97;;;;;;;13.74;83.97;101975.78;5015334;28;20036;-71
2022/06/15 00:38:31;;;;;;;13.98;4.93;;;;;;;13.64;84.84;101967.47;5032987;28;20068;-71
2022/06/15 00:40:57;;;;;;;9.88;4.95;;;;;;;13.61;85.13;101960.03;5033163;28;20032;-71
2022/06/15 00:43:41;;;;;;;10.27;4.93;;;;;;;13.67;84.69;101955.94;5015331;28;20032;-73
2022/06/15 00:46:23;;;;;;;11.52;5.03;;;;;;;13.76;84.50;101960.03;5032934;28;20504;-72
2022/06/15 00:49:04;;;;;;;8.77;5.28;;;;;;;13.73;84.22;101960.41;5032963;28;20037;-71
2022/06/15 00:51:29;;;;;;;13.52;5.35;;;;;;;13.59;84.91;101959.41;5015304;28;20069;-71
2022/06/15 00:53:57;;;;;;;13.05;5.50;;;;;;;13.56;85.45;101953.75;5033088;28;20049;-71
2022/06/15 00:56:24;;;;;;;11.48;5.05;;;;;;;13.54;85.75;101959.91;5032832;28;20029;-72
2022/06/15 00:58:52;;;;;;;11.18;5.20;;;;;;;13.52;86.57;101956.72;5015111;28;20488;-71
2022/06/15 01:01:18;;;;;;;10.88;4.90;;;;;;;13.53;86.10;101960.13;5015074;28;20112;-71
2022/06/15 01:03:49;;;;;;;11.48;5.10;;;;;;;13.41;86.45;101951.94;5014975;28;20452;-71
2022/06/15 01:06:39;;;;;;;11.95;5.18;;;;;;;13.34;86.69;101961.41;5015096;28;20032;-71
2022/06/15 01:09:07;;;;;;;13.43;4.95;;;;;;;13.43;86.78;101949.16;5014911;28;20033;-70
2022/06/15 01:11:47;;;;;;;10.02;5.20;;;;;;;13.41;87.18;101956.34;5032740;28;20057;-73
2022/06/15 01:14:49;;;;;;;11.63;5.22;;;;;;;13.30;87.15;101947.19;5015016;28;20018;-71
2022/06/15 01:17:37;;;;;;;9.60;4.65;;;;;;;13.26;87.97;101938.13;5034350;28;20392;-71
2022/06/15 01:20:21;;;;;;;10.77;4.95;;;;;;;13.25;87.09;101949.47;4982742;28;20104;-70
2022/06/15 01:23:16;;;;;;;11.77;4.95;;;;;;;13.25;87.69;101942.50;5018740;28;20079;-70
2022/06/15 01:25:57;;;;;;;11.93;4.90;;;;;;;13.29;87.52;101941.19;5036440;28;20048;-70
2022/06/15 01:28:55;;;;;;;15.65;4.72;;;;;;;13.32;87.15;101937.41;5018929;28;20054;-70
2022/06/15 01:31:32;;;;;;;11.13;4.75;;;;;;;13.28;87.65;101936.16;5036324;28;20511;-71
2022/06/15 01:34:18;;;;;;;10.98;4.78;;;;;;;13.30;86.79;101942.00;5036274;28;20044;-71
2022/06/15 01:36:58;;;;;;;8.63;4.40;;;;;;;13.36;86.59;101941.28;5036504;28;20106;-71
2022/06/15 01:39:31;;;;;;;7.63;4.65;;;;;;;13.37;86.16;101942.09;5036364;28;20149;-70
2022/06/15 01:42:01;;;;;;;;;;;;;;;13.37;85.87;101932.50;5019304;28;20032;-71
2022/06/15 01:44:37;;;;;;;9.18;4.55;;;;;;;13.43;85.70;101936.97;5018444;28;19915;-70
2022/06/15 01:47:11;;;;;;;8.93;4.30;;;;;;;13.34;85.66;101943.25;5036144;28;20021;-70
2022/06/15 01:49:41;;;;;;;10.60;4.20;;;;;;;13.41;86.27;101936.38;5036066;28;20389;-71
2022/06/15 01:52:11;;;;;;;8.30;4.50;;;;;;;13.36;86.04;101930.91;5018295;28;20025;-71
2022/06/15 01:54:42;;;;;;;12.35;4.60;;;;;;;13.42;86.10;101930.19;5036095;28;20473;-72
2022/06/15 01:57:09;;;;;;;7.10;4.40;;;;;;;13.37;85.51;101918.72;5018029;28;20021;-71
2022/06/15 01:59:44;;;;;;;11.52;4.30;;;;;;;13.26;85.75;101922.53;5018086;28;20033;-71
2022/06/15 02:02:22;;;;;;;7.13;4.50;;;;;;;13.01;86.99;101925.34;5035903;28;20033;-71
2022/06/15 02:05:00;;;;;;;8.75;4.55;;;;;;;12.90;86.99;101905.00;5035996;28;20065;-71
2022/06/15 02:08:02;;;;;;;8.20;4.88;;;;;;;13.07;88.01;101923.84;5018054;28;20021;-71
2022/06/15 02:10:37;;;;;;;8.02;4.20;;;;;;;13.10;86.94;101921.69;5017934;28;20036;-71
2022/06/15 02:13:09;;;;;;;7.93;4.18;;;;;;;13.05;87.58;101921.41;5035738;28;20025;-72
2022/06/15 02:15:40;;;;;;;11.27;4.47;;;;;;;12.85;86.99;101915.88;5017870;28;20033;-71
2022/06/15 02:18:09;;;;;;;9.43;4.30;;;;;;;12.89;87.77;101911.19;5017815;28;20025;-71
2022/06/15 02:20:41;;;;;;;11.18;4.90;;;;;;;13.04;88.49;101911.22;5017745;28;20041;-70
2022/06/15 02:23:11;;;;;;;10.07;4.78;;;;;;;13.00;88.11;101905.53;5018051;28;20029;-71
2022/06/15 02:25:41;;;;;;;11.60;4.93;;;;;;;13.00;87.83;101908.13;5017779;28;20024;-71
2022/06/15 02:28:06;;;;;;;7.97;4.30;;;;;;;13.00;88.01;101895.16;5016845;28;20477;-71
2022/06/15 02:30:32;;;;;;;8.68;4.93;;;;;;;12.94;87.92;101905.44;5035145;28;20033;-71
2022/06/15 02:33:32;;;;;;;9.38;5.00;;;;;;;12.90;87.86;101901.59;5017675;28;20037;-71
2022/06/15 02:35:59;;;;;;;8.52;4.63;;;;;;;12.85;87.62;101899.50;5017274;28;20378;-70
2022/06/15 02:38:26;;;;;;;7.43;4.70;;;;;;;12.84;88.37;101893.53;5017588;28;20021;-71
2022/06/15 02:40:52;;;;;;;8.35;4.60;;;;;;;12.74;87.64;101889.56;5035167;28;20060;-71
2022/06/15 02:43:21;;;;;;;9.52;5.07;;;;;;;12.62;88.41;101887.34;5035193;28;20100;-71
2022/06/15 02:45:48;;;;;;;9.82;5.10;;;;;;;12.58;88.80;101896.47;5035067;28;20056;-72
2022/06/15 02:48:15;;;;;;;8.32;4.68;;;;;;;12.64;88.46;101894.97;5017399;28;20025;-70
2022/06/15 02:50:47;;;;;;;10.73;4.80;;;;;;;12.65;88.66;101896.59;5017188;28;20067;-70
2022/06/15 02:53:19;;;;;;;9.73;4.93;;;;;;;12.59;88.49;101899.88;5017564;28;20546;-70
2022/06/15 02:55:46;;;;;;;8.65;5.28;;;;;;;12.63;88.75;101889.00;5017158;28;20037;-70
2022/06/15 02:58:14;;;;;;;7.95;4.90;;;;;;;12.60;88.36;101891.09;5034904;28;20028;-70
2022/06/15 03:00:39;;;;;;;11.55;5.47;;;;;;;12.46;89.60;101889.25;5016889;28;20392;-70
2022/06/15 03:03:05;;;;;;;7.65;4.80;;;;;;;12.45;89.25;101887.66;5017244;28;20017;-70
2022/06/15 03:05:30;;;;;;;9.65;5.18;;;;;;;12.45;89.12;101885.06;5017034;28;20029;-70
2022/06/15 03:07:56;;;;;;;12.63;5.57;;;;;;;12.39;88.95;101886.56;5035001;28;20030;-71
2022/06/15 03:10:22;;;;;;;11.15;5.22;;;;;;;12.41;89.99;101887.19;5034459;28;20152;-70
2022/06/15 03:12:47;;;;;;;9.55;4.97;;;;;;;12.32;89.54;101881.25;5034605;28;20111;-70
2022/06/15 03:15:14;;;;;;;8.57;4.80;;;;;;;12.30;89.69;101888.38;5016864;28;20021;-70
2022/06/15 03:17:39;;;;;;;8.85;5.13;;;;;;;12.35;89.98;101890.47;5016671;28;20124;-71
2022/06/15 03:20:06;;;;;;;8.38;4.68;;;;;;;12.44;89.36;101892.03;5016764;28;20037;-70
2022/06/15 03:22:35;;;;;;;8.60;4.88;;;;;;;12.41;88.96;101894.97;5016578;28;20021;-70
2022/06/15 03:25:01;;;;;;;14.05;5.15;;;;;;;12.38;89.30;101887.53;5034336;28;20043;-69
2022/06/15 03:27:26;;;;;;;9.07;5.10;;;;;;;12.46;89.08;101889.25;5034295;28;20100;-70
2022/06/15 03:29:53;;;;;;;9.82;4.82;;;;;;;12.50;88.11;101893.94;5034450;28;20112;-70
2022/06/15 03:32:18;;;;;;;7.63;4.85;;;;;;;12.48;88.00;101897.69;5016292;28;20038;-70
2022/06/15 03:34:44;;;;;;;11.13;4.80;;;;;;;12.44;87.92;101894.63;5033975;28;20108;-71
2022/06/15 03:37:10;;;;;;;7.40;4.32;;;;;;;12.44;88.33;101897.22;5034060;28;20109;-70
2022/06/15 03:39:36;;;;;;;14.52;4.90;;;;;;;12.41;87.80;101900.16;5033974;28;20398;-70
2022/06/15 03:42:18;;;;;;;9.60;4.70;;;;;;;12.39;87.78;101892.53;5033971;28;20029;-70
2022/06/15 03:44:44;;;;;;;13.25;4.88;;;;;;;12.39;87.78;101891.72;5016139;28;20493;-70
2022/06/15 03:47:13;;;;;;;10.23;4.35;;;;;;;12.53;87.65;101885.81;5033809;28;20036;-71
2022/06/15 03:49:39;;;;;;;7.45;4.25;;;;;;;12.59;86.81;101882.53;5016025;28;20029;-71
2022/06/15 03:52:05;;;;;;;7.65;4.47;;;;;;;12.49;87.20;101891.53;5016007;28;20518;-71
2022/06/15 03:54:30;;;;;;;8.68;4.93;;;;;;;12.46;87.27;101895.28;5033793;28;20116;-71
2022/06/15 03:56:56;;;;;;;8.30;4.38;;;;;;;12.45;87.29;101892.84;5015961;28;20121;-69
2022/06/15 03:59:22;;;;;;;6.28;4.22;;;;;;;12.53;87.21;101898.78;5033683;28;20086;-71
2022/06/15 04:01:47;;;;;;;10.52;4.43;;;;;;;12.60;86.80;101893.69;5015844;28;20059;-71
2022/06/15 04:04:12;;;;;;;7.50;4.15;;;;;;;12.66;86.22;101898.22;5033717;28;20032;-70
2022/06/15 04:06:38;;;;;;;12.13;4.38;;;;;;;12.64;85.94;101900.97;5015822;28;20017;-70
2022/06/15 04:09:03;;;;;;;8.05;4.40;;;;;;;12.54;86.48;101895.19;5015612;28;20021;-70
2022/06/15 04:14:12;;;;;;;12.38;4.70;;;;;;;12.73;85.85;101896.53;5033537;28;20455;-69
2022/06/15 04:16:37;;;;;;;13.15;4.43;;;;;;;12.78;85.41;101891.63;5033385;28;20104;-70
2022/06/15 04:19:06;;;;;;;8.23;4.03;;;;;;;12.84;85.58;101893.53;5033186;28;20111;-70
2022/06/15 04:21:32;;;;;;;8.45;4.55;;;;;;;12.86;85.44;101898.56;5015679;28;20029;-70
2022/06/15 04:23:57;;;;;;;8.95;4.28;;;;;;;12.79;85.18;101893.22;5033329;28;20022;-70
2022/06/15 04:26:22;;;;;;;10.52;4.25;;;;;;;12.83;84.99;101898.88;5015485;28;20025;-71
2022/06/15 04:28:48;;;;;;;7.78;4.32;;;;;;;12.99;85.00;101903.13;5015569;28;20030;-70
2022/06/15 04:31:14;;;;;;;8.70;4.38;;;;;;;12.97;85.31;101908.50;5015210;28;20508;-70
2022/06/15 04:33:39;;;;;;;8.90;4.57;;;;;;;13.09;85.13;101903.72;5015654;28;20029;-72
2022/06/15 04:36:05;;;;;;;8.73;4.38;;;;;;;13.19;84.44;101908.66;5015248;28;20029;-69
2022/06/15 04:38:30;;;;;;;10.65;4.50;;;;;;;13.22;84.10;101900.50;5015213;28;20030;-69
2022/06/15 04:40:56;;;;;;;8.00;4.13;;;;;;;13.34;84.11;101912.09;5033143;28;20033;-70
2022/06/15 04:43:21;;;;;;;9.50;4.43;;;;;;;13.43;83.46;101903.22;5033244;28;20370;-71
2022/06/15 04:45:47;;;;;;;7.63;4.35;;;;;;;13.45;83.68;101909.06;5037743;28;20171;-70
2022/06/15 04:48:12;;;;;;;10.27;4.72;;;;;;;13.51;83.88;101907.53;5033042;28;20029;-70
2022/06/15 04:50:38;;;;;;;8.88;4.53;;;;;;;13.60;82.99;101906.47;5033355;28;20100;-71
2022/06/15 04:53:05;;;;;;;7.78;4.40;;;;;;;13.65;82.17;101906.72;5017043;28;20022;-70
2022/06/15 04:55:31;;;;;;;7.57;4.40;;;;;;;13.72;82.39;101901.63;5033160;28;20029;-71
2022/06/15 04:57:59;;;;;;;10.43;4.40;;;;;;;13.82;82.02;101903.97;5033147;28;20053;-70
2022/06/15 05:00:26;;;;;;;9.65;4.50;;;;;;;13.74;81.48;101910.03;5015167;28;20026;-71
2022/06/15 05:02:52;;;;;;;11.60;4.68;;;;;;;13.74;81.55;101899.66;5015080;28;20036;-70
2022/06/15 05:05:18;;;;;;;8.57;4.13;;;;;;;13.87;80.97;101905.03;5015209;28;20025;-70
2022/06/15 05:07:43;;;;;;;9.38;4.38;;;;;;;13.93;82.37;101909.50;5015216;28;20568;-70
2022/06/15 05:10:14;;;;;;;11.45;4.50;;;;;;;13.96;81.18;101910.94;5033196;28;20037;-70
2022/06/15 05:12:39;;;;;;;9.10;4.35;;;;;;;14.01;81.19;101916.38;5032928;28;20032;-70
2022/06/15 05:15:05;;;;;;;8.43;4.30;;;;;;;14.62;78.49;101885.66;5033032;28;20025;-70
2022/06/15 05:17:30;;;;;;;7.85;4.30;;;;;;;14.34;79.71;101903.75;5032818;28;20029;-71
2022/06/15 05:19:56;;;;;;;10.85;4.40;;;;;;;14.35;79.38;101900.16;5032706;28;20026;-70
2022/06/15 05:22:21;;;;;;;11.15;4.40;;;;;;;14.42;79.41;101898.44;5015414;28;20168;-70
2022/06/15 05:24:46;;;;;;;9.75;4.55;;;;;;;14.50;80.14;101902.72;5032786;28;20526;-70
2022/06/15 05:27:12;;;;;;;9.65;4.13;;;;;;;14.82;78.34;101908.44;5015148;28;20029;-70
2022/06/15 05:29:37;;;;;;;9.90;4.63;;;;;;;16.36;72.10;101903.84;5032541;28;20029;-71
2022/06/15 05:32:05;;;;;;;9.07;4.03;;;;;;;19.86;59.37;101905.94;5014932;28;20140;-70
2022/06/15 05:34:30;;;;;;;9.30;3.42;;;;;;;23.55;47.65;101901.53;5032609;28;20022;-71
2022/06/15 05:36:56;;;;;;;7.97;3.60;;;;;;;26.35;40.49;101898.13;5014769;28;20032;-71
2022/06/15 05:39:21;;;;;;;11.73;3.10;;;;;;;27.68;36.86;101900.41;5014744;28;20029;-71
2022/06/15 05:41:49;;;;;;;8.70;3.00;;;;;;;27.77;36.38;101897.97;5032394;28;20025;-70
2022/06/15 05:46:56;;;;;;;6.15;2.70;;;;;;;28.61;34.41;101895.97;5032520;28;20538;-71
2022/06/15 05:49:22;;;;;;;7.23;2.93;;;;;;;28.43;34.05;101904.69;5035057;28;20105;-71
2022/06/15 05:51:48;;;;;;;7.47;3.22;;;;;;;28.30;34.01;101901.56;5014950;28;20844;-70
2022/06/15 05:54:13;;;;;;;9.52;3.20;;;;;;;27.85;34.35;101900.03;5032206;28;20053;-71
2022/06/15 05:56:38;;;;;;;8.60;2.90;;;;;;;29.16;32.70;101895.66;5014457;28;20036;-71
2022/06/15 05:59:04;;;;;;;9.90;2.97;;;;;;;29.74;32.10;101902.63;5033021;28;20034;-72
2022/06/15 06:01:32;;;;;;;8.32;3.05;;;;;;;29.02;32.16;101904.31;5032407;28;20021;-71
2022/06/15 06:03:57;;;;;;;8.00;3.05;;;;;;;29.33;32.64;101895.19;5033275;28;20029;-71
2022/06/15 06:06:24;;;;;;;7.65;3.00;;;;;;;29.95;31.89;101900.41;5036033;28;20028;-71
2022/06/15 06:08:49;;;;;;;11.73;3.10;;;;;;;29.23;32.42;101910.22;5035568;28;20037;-71
2022/06/15 06:11:15;;;;;;;10.45;3.38;;;;;;;29.44;32.30;101902.75;5018089;28;20131;-72
2022/06/15 06:13:41;;;;;;;10.75;3.13;;;;;;;29.25;31.65;101912.56;5017923;28;20395;-71
2022/06/15 06:16:07;;;;;;;10.23;3.20;;;;;;;29.65;31.16;101908.59;5035467;28;20100;-71
2022/06/15 06:18:32;;;;;;;8.48;3.33;;;;;;;29.12;32.57;101908.75;5035572;28;20075;-70
2022/06/15 06:20:58;;;;;;;10.93;3.28;;;;;;;27.99;33.18;101908.97;5017948;28;20022;-70
2022/06/15 06:23:23;;;;;;;11.35;3.42;;;;;;;28.35;33.34;101912.16;5035816;28;20033;-70
2022/06/15 06:25:52;;;;;;;8.75;3.53;;;;;;;28.13;34.36;101896.66;5022215;28;20024;-74
2022/06/15 06:28:33;;;;;;;12.63;3.80;;;;;;;29.28;32.40;101908.53;5024602;28;20030;-72
2022/06/15 06:31:00;;;;;;;8.30;3.35;;;;;;;28.76;33.23;101905.66;5008678;28;20057;-72
2022/06/15 06:33:28;;;;;;;9.18;3.63;;;;;;;28.35;33.64;101914.81;5036328;28;20022;-71
2022/06/15 06:35:55;;;;;;;10.05;3.42;;;;;;;27.08;36.37;101911.03;5017614;28;20029;-71
2022/06/15 06:38:21;;;;;;;10.30;3.33;;;;;;;24.71;40.62;101907.38;5017914;28;20025;-71
2022/06/15 06:40:48;;;;;;;8.98;3.17;;;;;;;23.42;43.80;101900.09;5017928;28;20026;-71
2022/06/15 06:43:13;;;;;;;11.85;3.08;;;;;;;21.67;48.20;101918.63;5017383;28;20017;-71
2022/06/15 06:45:39;;;;;;;11.13;3.55;;;;;;;22.03;47.79;101914.00;5017427;28;20040;-71
2022/06/15 06:48:04;;;;;;;9.60;3.40;;;;;;;21.19;51.24;101904.72;5017814;28;20501;-74
2022/06/15 06:50:31;;;;;;;9.50;3.42;;;;;;;22.22;47.64;101909.38;5017351;28;20041;-70
2022/06/15 06:52:57;;;;;;;14.73;3.30;;;;;;;22.27;48.13;101904.19;5035961;28;20100;-71
2022/06/15 06:55:26;;;;;;;8.70;3.28;;;;;;;22.85;45.60;101907.47;5035144;28;20485;-71
2022/06/15 06:57:56;;;;;;;9.77;3.40;;;;;;;22.32;46.69;101909.53;5035914;28;20025;-73
2022/06/15 07:00:21;;;;;;;11.88;3.50;;;;;;;22.32;47.28;101920.06;5019631;28;20026;-73
2022/06/15 07:02:47;;;;;;;10.45;3.67;;;;;;;22.25;48.66;101922.84;5035305;28;20436;-73
2022/06/15 07:05:12;;;;;;;10.45;3.50;;;;;;;22.23;49.51;101924.91;5017088;28;20036;-73
2022/06/15 07:07:37;;;;;;;12.75;3.40;;;;;;;22.75;47.87;101929.97;5017139;28;20057;-73
2022/06/15 07:10:03;;;;;;;9.98;3.45;;;;;;;23.00;47.46;101930.63;5034886;28;20530;-73
2022/06/15 07:12:28;;;;;;;8.35;3.50;;;;;;;22.70;48.91;101939.63;5034952;28;20097;-72
2022/06/15 07:14:54;;;;;;;11.07;3.72;;;;;;;23.17;45.88;101934.03;5016762;28;20021;-73
2022/06/15 07:17:19;;;;;;;11.10;3.22;;;;;;;23.51;45.77;101945.28;5018992;28;20033;-75
2022/06/15 07:19:44;;;;;;;11.07;3.20;;;;;;;23.24;46.65;101941.75;5035411;28;20025;-74
2022/06/15 07:22:10;;;;;;;8.73;2.63;;;;;;;23.53;45.85;101939.75;5016164;28;20564;-73
2022/06/15 07:24:35;;;;;;;7.75;2.85;;;;;;;23.87;45.34;101940.44;5016308;28;20025;-72
2022/06/15 07:27:01;;;;;;;8.55;3.20;;;;;;;23.41;46.03;101938.03;5017109;28;20081;-77
2022/06/15 07:29:27;;;;;;;9.57;3.05;;;;;;;23.25;46.68;101940.72;5016764;28;20112;-75
2022/06/15 07:31:55;;;;;;;7.50;3.00;;;;;;;22.95;46.44;101939.25;5015512;28;20092;-72
2022/06/15 07:34:21;;;;;;;13.82;2.90;;;;;;;23.46;46.77;101942.59;5032692;28;20026;-73
2022/06/15 07:36:47;;;;;;;12.35;3.28;;;;;;;23.84;45.32;101946.22;5034522;28;20033;-72
2022/06/15 07:39:27;;;;;;;10.35;2.60;;;;;;;23.81;44.48;101930.88;5005030;28;20056;-76
2022/06/15 07:41:54;;;;;;;13.50;3.00;;;;;;;24.08;43.75;101944.06;5037073;28;20025;-72
2022/06/15 07:44:22;;;;;;;8.25;2.80;;;;;;;23.49;44.91;101926.25;5041002;28;20446;-72
2022/06/15 07:46:48;;;;;;;10.50;2.70;;;;;;;24.25;43.55;101941.34;5018032;28;20068;-72
2022/06/15 07:52:01;;;;;;;9.65;3.08;;;;;;;23.34;44.23;101918.97;5034282;28;20040;-72
2022/06/15 07:54:27;;;;;;;9.30;2.50;;;;;;;23.56;42.28;101947.19;5033890;28;20481;-72
2022/06/15 07:56:54;;;;;;;5.80;2.10;;;;;;;24.18;42.65;101946.03;5016222;28;20070;-72
2022/06/15 07:59:20;;;;;;;9.23;2.65;;;;;;;24.22;41.14;101934.69;5033357;28;20029;-71
2022/06/15 08:01:46;;;;;;;8.63;2.30;;;;;;;24.57;42.41;101936.09;5032453;28;20032;-72
2022/06/15 08:04:13;;;;;;;12.35;2.33;;;;;;;24.25;41.17;101939.47;5032466;28;20032;-72
2022/06/15 08:06:41;;;;;;;8.80;2.38;;;;;;;24.95;39.53;101940.31;5015039;28;20093;-72
2022/06/15 08:09:09;;;;;;;6.63;2.22;;;;;;;25.16;39.41;101937.81;5015670;28;20438;-71
2022/06/15 08:11:38;;;;;;;6.13;1.95;;;;;;;25.23;37.62;101941.00;5033729;28;20510;-72
2022/06/15 08:14:03;;;;;;;7.13;2.20;;;;;;;24.74;37.57;101949.97;5015840;28;20480;-71
2022/06/15 08:16:29;;;;;;;8.90;2.00;;;;;;;24.58;38.60;101939.53;5033551;28;20129;-71
2022/06/15 08:18:58;;;;;;;7.25;2.15;;;;;;;23.99;39.20;101942.94;5015768;28;20439;-72
2022/06/15 08:21:28;;;;;;;8.30;2.38;;;;;;;24.62;38.34;101943.25;5015668;28;20542;-71
2022/06/15 08:23:56;;;;;;;7.03;2.13;;;;;;;24.63;37.29;101943.00;5015731;28;20029;-71
2022/06/15 08:26:27;;;;;;;7.25;1.85;;;;;;;23.81;38.67;101936.94;5032730;28;20095;-72
2022/06/15 08:28:55;;;;;;;5.47;1.83;;;;;;;24.72;36.86;101943.34;5018821;28;20056;-72
2022/06/15 08:31:21;;;;;;;8.27;2.20;;;;;;;24.82;37.72;101935.47;5033500;28;20056;-72
2022/06/15 08:33:47;;;;;;;6.85;2.15;;;;;;;25.28;37.00;101934.97;5033372;28;20033;-72
2022/06/15 08:36:13;;;;;;;8.55;1.98;;;;;;;25.08;36.62;101941.69;5033215;28;20036;-72
2022/06/15 08:38:40;;;;;;;7.20;2.22;;;;;;;24.33;37.76;101938.25;5014564;28;20370;-71
2022/06/15 08:41:22;;;;;;;8.38;2.08;;;;;;;24.05;39.10;101944.56;5014050;28;20032;-72
2022/06/15 08:43:59;;;;;;;9.73;2.47;;;;;;;25.50;39.12;101934.78;5014942;28;20393;-72
2022/06/15 08:46:43;;;;;;;8.45;2.35;;;;;;;25.94;38.84;101942.34;5032709;28;20048;-72
2022/06/15 08:49:24;;;;;;;6.30;2.10;;;;;;;25.38;35.40;101935.81;5021999;28;20030;-72
2022/06/15 08:52:08;;;;;;;11.82;2.50;;;;;;;25.16;36.42;101938.59;5033171;28;20022;-72
2022/06/15 08:54:45;;;;;;;5.95;2.10;;;;;;;25.27;36.00;101925.44;5015397;28;20097;-72
2022/06/15 08:57:24;;;;;;;4.75;1.88;;;;;;;26.18;35.25;101940.00;5015297;28;20098;-73
2022/06/15 09:00:06;;;;;;;6.20;2.10;;;;;;;25.01;35.36;101935.84;5015341;28;20029;-74
2022/06/15 09:02:52;;;;;;;7.10;2.15;;;;;;;24.96;36.92;101931.31;5033021;28;20032;-73
2022/06/15 09:05:50;;;;;;;10.90;2.20;;;;;;;25.38;36.40;101937.66;5015251;28;20496;-71
2022/06/15 09:08:44;;;;;;;5.03;2.05;;;;;;;25.73;36.23;101939.63;5034814;28;20093;-76
2022/06/15 09:11:41;;;;;;;5.22;2.05;;;;;;;25.95;35.90;101934.16;5015194;28;20032;-72
2022/06/15 09:14:24;;;;;;;7.97;2.17;;;;;;;25.02;35.86;101936.66;5018080;28;20025;-72
2022/06/15 09:17:08;;;;;;;8.75;2.20;;;;;;;24.96;35.67;101941.09;5032892;28;20068;-71
2022/06/15 09:20:00;;;;;;;6.90;2.05;;;;;;;25.95;35.54;101934.16;5032957;28;20103;-71
2022/06/15 09:22:32;;;;;;;12.40;2.88;;;;;;;25.56;35.93;101923.97;5015275;28;20018;-72
2022/06/15 09:25:07;;;;;;;7.63;2.35;;;;;;;25.77;36.35;101937.25;5015091;28;20026;-72
2022/06/15 09:27:41;;;;;;;11.95;2.10;;;;;;;25.74;35.83;101935.13;5015529;28;20037;-71
2022/06/15 09:30:10;;;;;;;4.32;2.00;;;;;;;25.09;35.75;101940.66;5015634;28;20029;-71
2022/06/15 09:32:40;;;;;;;10.45;2.45;;;;;;;24.72;36.86;101927.50;5015301;28;20072;-72
2022/06/15 09:35:16;;;;;;;4.63;2.00;;;;;;;25.93;36.92;101923.03;5034414;28;20031;-73
2022/06/15 09:37:46;;;;;;;6.65;1.92;;;;;;;24.68;36.58;101919.25;5038015;28;20021;-72
2022/06/15 09:40:14;;;;;;;7.90;2.30;;;;;;;25.16;36.58;101919.31;5040674;28;20435;-71
2022/06/15 09:43:14;;;;;;;5.47;1.92;;;;;;;25.85;36.00;101910.28;5022585;28;20032;-72
2022/06/15 09:46:12;;;;;;;8.95;2.20;;;;;;;25.79;36.14;101906.81;5036500;28;20532;-71
2022/06/15 09:48:53;;;;;;;6.90;2.03;;;;;;;25.49;35.69;101912.84;5022026;28;20132;-71
2022/06/15 09:51:37;;;;;;;7.65;2.00;;;;;;;25.01;36.82;101908.63;5036477;28;20032;-71
2022/06/15 09:54:21;;;;;;;5.90;2.30;;;;;;;25.25;36.05;101912.47;5018304;28;20056;-71
2022/06/15 09:56:48;;;;;;;7.38;2.28;;;;;;;24.96;36.29;101907.53;5036009;28;20038;-71
2022/06/15 09:59:18;;;;;;;5.97;2.20;;;;;;;25.57;35.81;101901.72;5018321;28;20025;-72
2022/06/15 10:01:47;;;;;;;10.80;2.38;;;;;;;25.69;37.26;101904.13;5018158;28;20021;-71
2022/06/15 10:04:32;;;;;;;7.82;2.20;;;;;;;26.47;34.63;101911.94;5018395;28;20059;-73
2022/06/15 10:07:02;;;;;;;7.05;2.60;;;;;;;24.69;36.40;101909.50;5018308;28;20022;-72
2022/06/15 10:09:34;;;;;;;7.25;2.42;;;;;;;24.74;37.21;101910.31;5018171;28;20052;-72
2022/06/15 10:15:09;;;;;;;8.52;2.22;;;;;;;26.38;34.19;101908.19;5036166;28;20072;-71
2022/06/15 10:17:40;;;;;;;10.43;2.40;;;;;;;25.42;35.98;101906.97;5035620;28;20043;-73
2022/06/15 10:20:06;;;;;;;7.60;2.30;;;;;;;26.74;35.84;101911.63;5017993;28;20422;-72
2022/06/15 10:22:41;;;;;;;6.03;2.47;;;;;;;25.27;35.17;101905.06;5017383;28;20029;-72
2022/06/15 10:25:17;;;;;;;6.43;2.03;;;;;;;25.98;34.02;101911.63;5035435;28;20021;-73
2022/06/15 10:27:43;;;;;;;6.05;2.08;;;;;;;26.21;34.24;101899.72;5035618;28;20022;-74
2022/06/15 10:30:08;;;;;;;5.95;2.22;;;;;;;26.59;34.76;101908.22;5017664;28;20072;-72
2022/06/15 10:32:36;;;;;;;7.97;2.10;;;;;;;27.14;34.12;101896.66;5017563;28;20413;-71
2022/06/15 10:35:05;;;;;;;7.03;2.40;;;;;;;27.04;32.96;101903.88;5035569;28;20074;-73
2022/06/15 10:37:39;;;;;;;5.43;2.10;;;;;;;26.32;34.38;101906.63;5017544;28;20070;-72
2022/06/15 10:40:17;;;;;;;8.40;2.35;;;;;;;26.60;35.22;101901.84;5034732;28;20021;-72
2022/06/15 10:42:50;;;;;;;9.23;2.17;;;;;;;26.72;34.75;101883.81;5016531;28;20547;-72
2022/06/15 10:45:42;;;;;;;5.40;2.40;;;;;;;27.07;33.56;101893.50;5034668;28;20025;-72
2022/06/15 10:48:20;;;;;;;6.97;2.05;;;;;;;27.25;33.30;101900.13;5035253;28;20033;-79
2022/06/15 10:50:57;;;;;;;6.05;2.08;;;;;;;26.42;34.03;101897.88;5000570;28;20032;-78
2022/06/15 10:53:48;;;;;;;6.80;2.20;;;;;;;26.97;34.66;101897.00;5017591;28;20036;-79
2022/06/15 11:02:24;;;;;;;9.52;2.85;;;;;;;28.03;32.51;101890.66;5035149;28;20116;-79
2022/06/15 11:04:55;;;;;;;8.23;2.30;;;;;;;27.79;33.53;101898.50;5017412;28;20033;-78
2022/06/15 11:07:20;;;;;;;6.32;2.30;;;;;;;27.84;34.73;101895.81;5051569;28;20025;-80
2022/06/15 11:09:55;;;;;;;4.97;2.10;;;;;;;26.84;33.66;101902.84;5039881;28;20033;-80
2022/06/15 11:12:23;;;;;;;4.80;2.00;;;;;;;27.30;33.39;101891.31;5036208;28;20616;-79
2022/06/15 11:14:57;;;;;;;6.20;2.20;;;;;;;25.91;35.08;101897.88;5035058;28;20366;-79
2022/06/15 11:18:03;;;;;;;6.18;2.40;;;;;;;25.75;34.96;101895.16;5035148;28;20029;-79
2022/06/15 11:20:45;;;;;;;5.25;1.83;;;;;;;27.51;33.86;101886.72;5032996;28;20036;-80
2022/06/15 11:23:25;;;;;;;6.07;2.13;;;;;;;27.19;33.97;101885.28;5016932;28;20029;-78
2022/06/15 11:29:02;;;;;;;4.93;2.08;;;;;;;27.81;32.08;101880.44;5036478;28;20044;-79
2022/06/15 11:31:29;;;;;;;5.95;2.22;;;;;;;28.04;31.85;101890.34;5019265;28;20527;-78
2022/06/15 11:34:07;;;;;;;10.68;2.35;;;;;;;28.05;30.99;101881.31;5035425;28;20034;-78
2022/06/15 11:36:56;;;;;;;5.85;2.15;;;;;;;27.81;33.05;101878.56;5022181;28;20030;-80
2022/06/15 11:39:36;;;;;;;5.60;2.25;;;;;;;26.93;33.25;101866.78;5026939;28;20499;-79
2022/06/15 11:42:02;;;;;;;7.55;2.00;;;;;;;27.05;32.48;101868.34;5037792;28;20025;-81
2022/06/15 11:44:33;;;;;;;4.40;2.13;;;;;;;27.14;32.46;101872.00;5034237;28;20087;-78
2022/06/15 11:47:23;;;;;;;5.00;1.98;;;;;;;27.99;32.54;101879.75;5016771;28;20063;-81
2022/06/15 11:50:11;;;;;;;6.40;1.95;;;;;;;27.68;32.71;101879.97;5016359;28;20080;-80
2022/06/15 11:53:05;;;;;;;8.45;2.00;;;;;;;27.57;32.46;101870.47;5016641;28;20055;-78
2022/06/15 11:55:43;;;;;;;6.53;2.55;;;;;;;27.99;33.15;101866.47;5015796;28;20025;-81
2022/06/15 11:58:29;;;;;;;5.13;1.85;;;;;;;26.45;32.98;101874.28;5017158;28;20391;-80
2022/06/15 12:01:20;;;;;;;6.40;2.40;;;;;;;26.19;33.74;101865.56;5016690;28;20025;-77